createdAt,value
2022-09-15T00:00:21.706Z,6.20
2022-09-15T00:01:21.926Z,6.20
2022-09-15T00:02:22.111Z,6.30
2022-09-15T00:03:22.219Z,6.60
2022-09-15T00:04:22.394Z,8.30
2022-09-15T00:05:22.570Z,7.20
2022-09-15T00:06:22.740Z,7.90
2022-09-15T00:07:22.902Z,7.90
2022-09-15T00:08:23.056Z,10.20
2022-09-15T00:09:23.227Z,6.80
2022-09-15T00:10:23.402Z,8.70
2022-09-15T00:11:23.562Z,8.20
2022-09-15T00:12:23.757Z,8.20
2022-09-15T00:13:23.912Z,8.00
2022-09-15T00:14:24.103Z,7.60
2022-09-15T00:15:24.274Z,6.90
2022-09-15T00:16:24.476Z,6.10
2022-09-15T00:17:24.594Z,6.90
2022-09-15T00:18:24.795Z,7.70
2022-09-15T00:19:24.956Z,6.40
2022-09-15T00:20:25.124Z,6.90
2022-09-15T00:21:25.285Z,8.00
2022-09-15T00:22:25.459Z,6.90
2022-09-15T00:23:25.616Z,6.10
2022-09-15T00:24:25.775Z,7.80
2022-09-15T00:25:25.941Z,6.70
2022-09-15T00:26:26.114Z,7.70
2022-09-15T00:27:26.270Z,7.30
2022-09-15T00:28:26.433Z,6.50
2022-09-15T00:29:26.593Z,7.40
2022-09-15T00:30:26.807Z,7.80
2022-09-15T00:31:27.016Z,6.40
2022-09-15T00:32:27.086Z,6.10
2022-09-15T00:33:27.269Z,8.20
2022-09-15T00:34:27.473Z,7.10
2022-09-15T00:35:27.632Z,8.00
2022-09-15T00:36:27.811Z,7.70
2022-09-15T00:37:27.972Z,7.40
2022-09-15T00:38:28.164Z,8.20
2022-09-15T00:39:28.315Z,7.40
2022-09-15T00:40:28.505Z,5.60
2022-09-15T00:41:28.678Z,7.00
2022-09-15T00:42:28.800Z,6.30
2022-09-15T00:43:28.963Z,7.40
2022-09-15T00:44:29.123Z,7.70
2022-09-15T00:45:29.308Z,7.30
2022-09-15T00:46:29.454Z,6.10
2022-09-15T00:47:29.615Z,6.60
2022-09-15T00:48:29.784Z,6.80
2022-09-15T00:49:29.946Z,5.50
2022-09-15T00:50:30.101Z,5.90
2022-09-15T00:51:30.311Z,7.00
2022-09-15T00:52:30.484Z,6.60
2022-09-15T00:53:30.655Z,6.20
2022-09-15T00:54:30.816Z,5.90
2022-09-15T00:55:30.975Z,7.10
2022-09-15T00:56:31.150Z,6.60
2022-09-15T00:57:31.315Z,7.20
2022-09-15T00:58:31.472Z,7.40
2022-09-15T00:59:31.627Z,9.30
2022-09-15T01:00:31.787Z,5.90
2022-09-15T01:01:32.135Z,6.20
2022-09-15T01:02:32.246Z,7.20
2022-09-15T01:03:32.340Z,6.50
2022-09-15T01:04:32.503Z,8.00
2022-09-15T01:05:32.695Z,6.40
2022-09-15T01:06:32.878Z,5.00
2022-09-15T01:07:33.039Z,6.20
2022-09-15T01:08:33.191Z,6.30
2022-09-15T01:09:33.351Z,6.90
2022-09-15T01:10:33.512Z,6.40
2022-09-15T01:11:33.684Z,7.30
2022-09-15T01:12:33.841Z,8.90
2022-09-15T01:13:34.003Z,8.20
2022-09-15T01:14:34.165Z,7.10
2022-09-15T01:15:34.322Z,6.80
2022-09-15T01:16:34.571Z,6.30
2022-09-15T01:17:34.684Z,6.00
2022-09-15T01:18:34.824Z,5.70
2022-09-15T01:19:34.986Z,5.90
2022-09-15T01:20:35.154Z,6.50
2022-09-15T01:21:35.325Z,6.60
2022-09-15T01:22:35.497Z,7.20
2022-09-15T01:23:35.655Z,6.50
2022-09-15T01:24:35.810Z,6.70
2022-09-15T01:25:35.975Z,7.00
2022-09-15T01:26:36.148Z,6.50
2022-09-15T01:27:42.593Z,8.70
2022-09-15T01:28:37.488Z,8.20
2022-09-15T01:29:36.668Z,6.30
2022-09-15T01:30:36.828Z,5.80
2022-09-15T01:31:37.071Z,6.30
2022-09-15T01:32:37.140Z,8.20
2022-09-15T01:33:37.344Z,7.10
2022-09-15T01:34:37.498Z,6.90
2022-09-15T01:35:37.668Z,5.80
2022-09-15T01:36:37.839Z,6.30
2022-09-15T01:37:38.004Z,6.70
2022-09-15T01:38:38.165Z,7.20
2022-09-15T01:39:38.321Z,6.60
2022-09-15T01:40:38.506Z,6.10
2022-09-15T01:41:38.676Z,6.00
2022-09-15T01:42:38.842Z,8.90
2022-09-15T01:43:46.017Z,6.00
2022-09-15T01:44:39.170Z,7.30
2022-09-15T01:45:39.400Z,8.50
2022-09-15T01:46:39.500Z,7.80
2022-09-15T01:47:39.717Z,5.90
2022-09-15T01:48:39.866Z,8.00
2022-09-15T01:49:40.055Z,7.30
2022-09-15T01:50:40.220Z,5.80
2022-09-15T01:51:40.382Z,7.10
2022-09-15T01:52:40.552Z,6.20
2022-09-15T01:53:40.714Z,7.90
2022-09-15T01:54:40.871Z,5.70
2022-09-15T01:55:41.032Z,5.30
2022-09-15T01:56:41.189Z,6.60
2022-09-15T01:57:41.363Z,5.60
2022-09-15T01:58:41.514Z,6.00
2022-09-15T01:59:41.708Z,6.60
2022-09-15T02:00:41.979Z,7.00
2022-09-15T02:01:42.154Z,6.50
2022-09-15T02:02:42.245Z,7.80
2022-09-15T02:03:42.399Z,7.80
2022-09-15T02:04:42.596Z,9.10
2022-09-15T02:05:42.756Z,7.70
2022-09-15T02:06:42.912Z,8.30
2022-09-15T02:07:43.088Z,6.40
2022-09-15T02:08:43.244Z,7.40
2022-09-15T02:09:43.424Z,5.80
2022-09-15T02:10:43.569Z,7.20
2022-09-15T02:11:43.758Z,6.90
2022-09-15T02:12:44.016Z,7.60
2022-09-15T02:13:44.089Z,6.60
2022-09-15T02:14:44.248Z,7.00
2022-09-15T02:15:44.447Z,5.40
2022-09-15T02:16:44.623Z,6.20
2022-09-15T02:17:44.793Z,6.20
2022-09-15T02:18:44.941Z,7.30
2022-09-15T02:19:45.099Z,6.20
2022-09-15T02:20:45.261Z,7.20
2022-09-15T02:21:45.454Z,6.60
2022-09-15T02:22:45.647Z,6.70
2022-09-15T02:23:45.803Z,6.20
2022-09-15T02:24:45.964Z,7.00
2022-09-15T02:25:46.152Z,7.60
2022-09-15T02:26:46.313Z,6.50
2022-09-15T02:27:46.483Z,6.30
2022-09-15T02:28:46.669Z,6.80
2022-09-15T02:29:46.823Z,7.40
2022-09-15T02:30:46.985Z,5.90
2022-09-15T02:31:47.245Z,7.00
2022-09-15T02:32:47.335Z,7.40
2022-09-15T02:33:47.495Z,7.50
2022-09-15T02:34:47.647Z,5.90
2022-09-15T02:35:47.835Z,5.70
2022-09-15T02:36:48.049Z,5.20
2022-09-15T02:37:48.206Z,7.10
2022-09-15T02:38:48.362Z,6.90
2022-09-15T02:39:48.556Z,6.60
2022-09-15T02:40:48.681Z,6.80
2022-09-15T02:41:48.854Z,7.50
2022-09-15T02:42:49.016Z,8.30
2022-09-15T02:43:49.177Z,7.60
2022-09-15T02:44:49.342Z,5.70
2022-09-15T02:45:49.586Z,7.70
2022-09-15T02:46:49.728Z,6.50
2022-09-15T02:47:49.890Z,5.60
2022-09-15T02:48:50.046Z,9.10
2022-09-15T02:49:50.212Z,7.30
2022-09-15T02:50:50.368Z,8.20
2022-09-15T02:51:50.580Z,7.80
2022-09-15T02:52:50.732Z,6.40
2022-09-15T02:53:51.034Z,5.20
2022-09-15T02:54:51.085Z,8.90
2022-09-15T02:55:51.305Z,8.10
2022-09-15T02:56:51.432Z,8.00
2022-09-15T02:57:51.600Z,6.40
2022-09-15T02:58:51.753Z,6.50
2022-09-15T02:59:51.917Z,8.40
2022-09-15T03:00:52.138Z,6.60
2022-09-15T03:01:52.345Z,7.30
2022-09-15T03:02:52.423Z,7.70
2022-09-15T03:03:52.586Z,10.00
2022-09-15T03:04:52.754Z,8.00
2022-09-15T03:05:52.913Z,7.80
2022-09-15T03:06:53.093Z,9.20
2022-09-15T03:07:53.256Z,6.70
2022-09-15T03:08:53.416Z,6.50
2022-09-15T03:09:53.576Z,7.90
2022-09-15T03:10:53.731Z,7.40
2022-09-15T03:11:53.907Z,6.90
2022-09-15T03:12:54.073Z,6.80
2022-09-15T03:13:54.246Z,7.10
2022-09-15T03:14:54.392Z,7.00
2022-09-15T03:15:54.658Z,7.00
2022-09-15T03:16:54.773Z,6.70
2022-09-15T03:17:54.935Z,5.80
2022-09-15T03:18:55.194Z,6.40
2022-09-15T03:19:55.286Z,6.40
2022-09-15T03:20:55.451Z,8.40
2022-09-15T03:21:55.623Z,7.10
2022-09-15T03:22:55.792Z,6.30
2022-09-15T03:23:55.951Z,6.40
2022-09-15T03:24:56.110Z,6.90
2022-09-15T03:25:56.273Z,7.00
2022-09-15T03:26:56.441Z,8.30
2022-09-15T03:27:56.615Z,7.80
2022-09-15T03:28:56.770Z,6.40
2022-09-15T03:29:56.942Z,6.70
2022-09-15T03:30:57.104Z,7.10
2022-09-15T03:31:57.317Z,8.00
2022-09-15T03:32:57.416Z,6.20
2022-09-15T03:33:57.614Z,8.50
2022-09-15T03:34:58.695Z,6.50
2022-09-15T03:35:57.984Z,7.20
2022-09-15T03:36:58.145Z,5.60
2022-09-15T03:37:58.304Z,6.30
2022-09-15T03:38:58.465Z,7.10
2022-09-15T03:39:58.683Z,6.80
2022-09-15T03:40:58.825Z,5.00
2022-09-15T03:41:58.991Z,6.00
2022-09-15T03:42:59.153Z,7.30
2022-09-15T03:43:59.306Z,6.50
2022-09-15T03:44:59.485Z,7.00
2022-09-15T03:45:59.691Z,6.40
2022-09-15T03:46:59.807Z,7.90
2022-09-15T03:47:59.977Z,7.60
2022-09-15T03:49:00.136Z,7.40
2022-09-15T03:50:00.311Z,6.80
2022-09-15T03:51:00.468Z,8.30
2022-09-15T03:52:00.630Z,8.50
2022-09-15T03:53:00.787Z,7.80
2022-09-15T03:54:00.951Z,8.30
2022-09-15T03:55:01.123Z,6.80
2022-09-15T03:56:01.280Z,7.00
2022-09-15T03:57:01.480Z,6.30
2022-09-15T03:58:01.610Z,7.60
2022-09-15T03:59:01.808Z,7.00
2022-09-15T04:00:02.017Z,6.80
2022-09-15T04:01:02.151Z,6.70
2022-09-15T04:02:02.379Z,7.80
2022-09-15T04:03:02.509Z,7.30
2022-09-15T04:04:02.685Z,6.00
2022-09-15T04:05:02.854Z,6.10
2022-09-15T04:06:03.014Z,7.60
2022-09-15T04:07:03.174Z,6.30
2022-09-15T04:08:03.364Z,6.60
2022-09-15T04:09:03.523Z,8.00
2022-09-15T04:10:03.722Z,7.50
2022-09-15T04:11:03.907Z,7.40
2022-09-15T04:12:04.066Z,7.00
2022-09-15T04:13:04.219Z,6.80
2022-09-15T04:14:04.428Z,6.10
2022-09-15T04:15:04.587Z,7.70
2022-09-15T04:16:04.815Z,7.50
2022-09-15T04:17:04.926Z,6.90
2022-09-15T04:18:05.119Z,7.60
2022-09-15T04:19:05.278Z,7.30
2022-09-15T04:20:05.443Z,6.50
2022-09-15T04:21:05.627Z,7.90
2022-09-15T04:22:05.779Z,8.60
2022-09-15T04:23:05.939Z,7.00
2022-09-15T04:24:06.137Z,8.20
2022-09-15T04:25:06.281Z,6.50
2022-09-15T04:26:06.496Z,7.00
2022-09-15T04:27:06.656Z,7.80
2022-09-15T04:28:06.842Z,7.80
2022-09-15T04:29:06.999Z,6.90
2022-09-15T04:30:07.192Z,6.30
2022-09-15T04:31:07.428Z,6.70
2022-09-15T04:32:07.550Z,8.70
2022-09-15T04:33:07.711Z,8.60
2022-09-15T04:34:07.868Z,6.70
2022-09-15T04:35:08.029Z,6.50
2022-09-15T04:36:08.184Z,8.30
2022-09-15T04:37:08.366Z,7.10
2022-09-15T04:38:08.536Z,6.30
2022-09-15T04:39:08.722Z,5.70
2022-09-15T04:40:09.003Z,7.00
2022-09-15T04:41:09.089Z,6.60
2022-09-15T04:42:09.268Z,6.50
2022-09-15T04:43:09.426Z,7.80
2022-09-15T04:44:09.587Z,6.90
2022-09-15T04:45:09.765Z,7.10
2022-09-15T04:46:09.986Z,7.40
2022-09-15T04:47:10.118Z,7.10
2022-09-15T04:48:10.254Z,9.00
2022-09-15T04:49:10.432Z,6.50
2022-09-15T04:50:10.608Z,6.60
2022-09-15T04:51:10.802Z,7.30
2022-09-15T04:52:10.977Z,6.90
2022-09-15T04:53:11.129Z,5.80
2022-09-15T04:54:11.311Z,7.00
2022-09-15T04:55:11.495Z,7.20
2022-09-15T04:56:11.675Z,6.60
2022-09-15T04:57:11.875Z,6.30
2022-09-15T04:58:12.021Z,7.10
2022-09-15T04:59:12.216Z,6.50
2022-09-15T05:00:12.361Z,6.70
2022-09-15T05:01:12.651Z,6.10
2022-09-15T05:02:12.766Z,7.40
2022-09-15T05:03:12.896Z,6.80
2022-09-15T05:04:13.072Z,6.10
2022-09-15T05:05:13.258Z,6.50
2022-09-15T05:06:13.439Z,6.80
2022-09-15T05:07:13.635Z,6.20
2022-09-15T05:08:13.793Z,8.80
2022-09-15T05:09:13.942Z,7.50
2022-09-15T05:10:14.120Z,8.20
2022-09-15T05:11:14.295Z,8.70
2022-09-15T05:12:14.478Z,7.10
2022-09-15T05:13:14.686Z,7.30
2022-09-15T05:14:14.835Z,7.50
2022-09-15T05:15:15.007Z,6.90
2022-09-15T05:16:15.268Z,6.70
2022-09-15T05:17:15.358Z,9.00
2022-09-15T05:18:15.552Z,6.90
2022-09-15T05:19:15.725Z,7.70
2022-09-15T05:20:15.909Z,7.10
2022-09-15T05:21:16.087Z,6.90
2022-09-15T05:22:16.288Z,8.40
2022-09-15T05:23:16.428Z,8.60
2022-09-15T05:24:16.612Z,7.10
2022-09-15T05:25:16.792Z,8.30
2022-09-15T05:26:16.969Z,7.70
2022-09-15T05:27:17.164Z,7.40
2022-09-15T05:28:17.311Z,6.70
2022-09-15T05:29:17.494Z,7.20
2022-09-15T05:30:36.823Z,6.40
2022-09-15T05:31:18.870Z,9.30
2022-09-15T05:32:18.026Z,8.40
2022-09-15T05:33:18.180Z,6.60
2022-09-15T05:34:18.357Z,6.80
2022-09-15T05:35:18.541Z,9.50
2022-09-15T05:36:18.686Z,6.30
2022-09-15T05:37:19.902Z,7.50
2022-09-15T05:38:19.040Z,7.30
2022-09-15T05:39:19.222Z,8.80
2022-09-15T05:40:19.450Z,6.90
2022-09-15T05:41:19.585Z,9.70
2022-09-15T05:42:19.803Z,7.40
2022-09-15T05:43:19.949Z,7.10
2022-09-15T05:44:20.129Z,7.80
2022-09-15T05:45:20.316Z,9.40
2022-09-15T05:46:20.606Z,7.40
2022-09-15T05:47:20.690Z,6.80
2022-09-15T05:48:20.866Z,6.80
2022-09-15T05:49:21.006Z,7.50
2022-09-15T05:50:21.182Z,8.20
2022-09-15T05:51:21.386Z,6.90
2022-09-15T05:52:21.678Z,6.50
2022-09-15T05:53:21.733Z,8.90
2022-09-15T05:54:21.881Z,7.90
2022-09-15T05:55:22.056Z,10.60
2022-09-15T05:56:22.251Z,6.50
2022-09-15T05:57:22.459Z,8.00
2022-09-15T05:58:22.620Z,6.90
2022-09-15T05:59:22.794Z,7.70
2022-09-15T06:00:22.961Z,8.30
2022-09-15T06:01:23.190Z,8.90
2022-09-15T06:02:23.374Z,8.80
2022-09-15T06:03:27.411Z,7.90
2022-09-15T06:04:24.664Z,8.50
2022-09-15T06:05:23.843Z,7.20
2022-09-15T06:06:24.007Z,9.40
2022-09-15T06:07:24.185Z,8.00
2022-09-15T06:08:24.325Z,7.90
2022-09-15T06:09:24.514Z,7.00
2022-09-15T06:10:24.696Z,7.20
2022-09-15T06:11:24.885Z,7.20
2022-09-15T06:12:25.065Z,6.80
2022-09-15T06:13:25.239Z,8.30
2022-09-15T06:14:25.418Z,7.40
2022-09-15T06:15:25.619Z,7.80
2022-09-15T06:16:25.864Z,7.60
2022-09-15T06:17:25.955Z,7.20
2022-09-15T06:18:26.098Z,7.70
2022-09-15T06:19:26.327Z,7.50
2022-09-15T06:20:26.497Z,7.70
2022-09-15T06:21:26.618Z,8.00
2022-09-15T06:22:26.802Z,6.00
2022-09-15T06:23:26.975Z,7.40
2022-09-15T06:24:27.194Z,8.10
2022-09-15T06:25:27.348Z,7.20
2022-09-15T06:26:27.527Z,8.50
2022-09-15T06:27:27.714Z,7.40
2022-09-15T06:28:27.917Z,7.90
2022-09-15T06:29:28.062Z,8.20
2022-09-15T06:30:28.242Z,6.30
2022-09-15T06:31:28.510Z,6.80
2022-09-15T06:32:28.611Z,6.00
2022-09-15T06:33:28.782Z,6.30
2022-09-15T06:34:28.922Z,6.00
2022-09-15T06:35:29.111Z,5.90
2022-09-15T06:36:29.298Z,5.80
2022-09-15T06:37:29.511Z,6.60
2022-09-15T06:38:29.676Z,6.80
2022-09-15T06:39:29.854Z,8.00
2022-09-15T06:40:30.116Z,6.50
2022-09-15T06:41:42.647Z,6.90
2022-09-15T06:42:31.375Z,7.30
2022-09-15T06:43:30.575Z,7.30
2022-09-15T06:44:30.716Z,7.10
2022-09-15T06:45:30.919Z,8.60
2022-09-15T06:46:31.112Z,5.70
2022-09-15T06:47:31.268Z,6.10
2022-09-15T06:48:31.465Z,7.60
2022-09-15T06:49:31.641Z,7.60
2022-09-15T06:50:31.827Z,7.10
2022-09-15T06:51:32.018Z,6.80
2022-09-15T06:52:32.196Z,6.00
2022-09-15T06:53:32.391Z,6.20
2022-09-15T06:54:32.537Z,8.10
2022-09-15T06:55:32.725Z,6.80
2022-09-15T06:56:37.201Z,6.60
2022-09-15T06:57:34.076Z,6.30
2022-09-15T06:58:33.274Z,6.50
2022-09-15T06:59:33.419Z,5.90
2022-09-15T07:00:33.569Z,6.60
2022-09-15T07:01:33.750Z,5.60
2022-09-15T07:02:34.102Z,8.40
2022-09-15T07:03:34.255Z,5.60
2022-09-15T07:04:34.312Z,7.30
2022-09-15T07:05:34.495Z,7.20
2022-09-15T07:06:34.682Z,8.00
2022-09-15T07:07:34.873Z,5.30
2022-09-15T07:08:35.041Z,6.40
2022-09-15T07:09:35.565Z,7.60
2022-09-15T07:10:35.378Z,7.10
2022-09-15T07:11:35.557Z,7.50
2022-09-15T07:12:35.705Z,6.80
2022-09-15T07:13:35.928Z,5.20
2022-09-15T07:14:36.073Z,5.50
2022-09-15T07:15:36.247Z,7.00
2022-09-15T07:16:36.510Z,6.30
2022-09-15T07:17:36.657Z,5.50
2022-09-15T07:18:40.962Z,4.60
2022-09-15T07:19:37.956Z,6.10
2022-09-15T07:20:37.118Z,6.10
2022-09-15T07:21:37.271Z,7.10
2022-09-15T07:22:37.419Z,6.70
2022-09-15T07:23:37.634Z,5.80
2022-09-15T07:24:37.768Z,6.90
2022-09-15T07:25:38.358Z,7.50
2022-09-15T07:26:38.125Z,5.80
2022-09-15T07:27:38.404Z,6.30
2022-09-15T07:28:41.225Z,4.90
2022-09-15T07:29:38.658Z,8.30
2022-09-15T07:30:38.951Z,6.10
2022-09-15T07:31:39.128Z,6.30
2022-09-15T07:32:39.156Z,7.00
2022-09-15T07:33:39.362Z,6.80
2022-09-15T07:34:39.517Z,7.40
2022-09-15T07:35:39.662Z,7.90
2022-09-15T07:36:39.823Z,6.00
2022-09-15T07:37:40.013Z,7.50
2022-09-15T07:38:40.174Z,6.60
2022-09-15T07:39:40.364Z,6.10
2022-09-15T07:40:41.498Z,6.90
2022-09-15T07:41:40.702Z,8.00
2022-09-15T07:42:40.845Z,6.50
2022-09-15T07:44:39.328Z,9.40
2022-09-15T07:45:39.511Z,9.40
2022-09-15T07:46:39.638Z,6.50
2022-09-15T07:47:39.821Z,6.80
2022-09-15T07:48:39.997Z,6.50
2022-09-15T07:49:40.200Z,6.50
2022-09-15T07:50:40.343Z,7.40
2022-09-15T07:51:40.521Z,7.30
2022-09-15T07:52:40.700Z,7.60
2022-09-15T07:53:40.913Z,5.70
2022-09-15T07:54:41.062Z,6.30
2022-09-15T07:55:41.240Z,5.90
2022-09-15T07:56:41.424Z,5.40
2022-09-15T07:57:42.189Z,7.20
2022-09-15T07:58:41.839Z,6.40
2022-09-15T07:59:41.970Z,8.50
2022-09-15T08:00:42.209Z,7.30
2022-09-15T08:01:42.375Z,7.70
2022-09-15T08:02:42.495Z,6.50
2022-09-15T08:03:42.738Z,7.10
2022-09-15T08:04:42.876Z,5.80
2022-09-15T08:05:45.642Z,5.50
2022-09-15T08:06:43.187Z,5.80
2022-09-15T08:07:43.350Z,6.00
2022-09-15T08:08:44.506Z,6.60
2022-09-15T08:09:43.677Z,6.30
2022-09-15T08:10:43.841Z,6.00
2022-09-15T08:11:44.018Z,6.10
2022-09-15T08:12:44.171Z,5.40
2022-09-15T08:13:44.375Z,5.50
2022-09-15T08:14:44.563Z,8.40
2022-09-15T08:15:44.749Z,5.50
2022-09-15T08:16:44.871Z,6.60
2022-09-15T08:17:45.021Z,6.60
2022-09-15T08:18:45.298Z,6.40
2022-09-15T08:19:45.391Z,6.00
2022-09-15T08:20:45.546Z,4.70
2022-09-15T08:21:45.711Z,7.30
2022-09-15T08:22:45.891Z,5.30
2022-09-15T08:23:46.072Z,5.80
2022-09-15T08:24:46.271Z,6.60
2022-09-15T08:25:46.424Z,6.60
2022-09-15T08:26:46.612Z,6.40
2022-09-15T08:27:46.789Z,5.70
2022-09-15T08:28:46.933Z,5.40
2022-09-15T08:29:47.122Z,7.00
2022-09-15T08:30:47.258Z,5.80
2022-09-15T08:31:47.503Z,7.00
2022-09-15T08:32:47.578Z,4.90
2022-09-15T08:33:47.745Z,6.00
2022-09-15T08:34:47.938Z,5.00
2022-09-15T08:35:48.104Z,8.10
2022-09-15T08:36:48.275Z,5.60
2022-09-15T08:37:48.445Z,6.10
2022-09-15T08:38:48.612Z,7.20
2022-09-15T08:39:48.846Z,5.30
2022-09-15T08:40:48.937Z,4.30
2022-09-15T08:41:49.125Z,5.60
2022-09-15T08:42:49.309Z,7.20
2022-09-15T08:43:49.505Z,6.50
2022-09-15T08:44:49.685Z,5.90
2022-09-15T08:45:49.810Z,6.10
2022-09-15T08:46:50.045Z,6.30
2022-09-15T08:47:50.176Z,5.40
2022-09-15T08:48:50.360Z,5.70
2022-09-15T08:49:52.676Z,6.40
2022-09-15T08:50:50.699Z,7.80
2022-09-15T08:51:50.885Z,6.50
2022-09-15T08:52:51.073Z,5.50
2022-09-15T08:53:51.383Z,6.00
2022-09-15T08:54:51.428Z,6.10
2022-09-15T08:55:51.616Z,5.10
2022-09-15T08:56:51.787Z,6.20
2022-09-15T08:57:51.959Z,5.00
2022-09-15T08:58:52.136Z,6.90
2022-09-15T08:59:52.355Z,6.40
2022-09-15T09:00:52.487Z,5.70
2022-09-15T09:01:52.688Z,6.80
2022-09-15T09:02:52.891Z,4.60
2022-09-15T09:03:52.981Z,5.50
2022-09-15T09:04:53.170Z,5.80
2022-09-15T09:05:53.365Z,5.50
2022-09-15T09:06:53.512Z,7.90
2022-09-15T09:07:53.666Z,6.00
2022-09-15T09:08:53.859Z,6.20
2022-09-15T09:09:54.006Z,5.90
2022-09-15T09:10:54.187Z,6.20
2022-09-15T09:11:54.378Z,6.70
2022-09-15T09:12:54.559Z,4.70
2022-09-15T09:13:54.740Z,5.80
2022-09-15T09:14:54.931Z,6.40
2022-09-15T09:15:55.148Z,4.30
2022-09-15T09:16:55.314Z,6.00
2022-09-15T09:17:55.488Z,5.80
2022-09-15T09:18:55.673Z,4.90
2022-09-15T09:19:55.859Z,5.40
2022-09-15T09:20:56.069Z,5.80
2022-09-15T09:21:56.212Z,5.10
2022-09-15T09:22:56.383Z,6.20
2022-09-15T09:23:56.552Z,5.40
2022-09-15T09:24:56.743Z,6.30
2022-09-15T09:25:56.933Z,6.60
2022-09-15T09:26:57.125Z,5.50
2022-09-15T09:27:57.264Z,5.90
2022-09-15T09:28:57.466Z,5.90
2022-09-15T09:29:57.644Z,6.20
2022-09-15T09:30:57.851Z,7.10
2022-09-15T09:31:57.995Z,6.50
2022-09-15T09:32:58.157Z,5.20
2022-09-15T09:33:58.316Z,6.30
2022-09-15T09:34:58.495Z,7.10
2022-09-15T09:35:58.648Z,5.40
2022-09-15T09:36:58.816Z,5.10
2022-09-15T09:37:58.977Z,5.90
2022-09-15T09:38:59.146Z,5.20
2022-09-15T09:39:59.471Z,6.70
2022-09-15T09:41:02.341Z,5.70
2022-09-15T09:41:59.670Z,5.70
2022-09-15T09:42:59.855Z,5.70
2022-09-15T09:44:00.019Z,5.70
2022-09-15T09:45:00.172Z,5.00
2022-09-15T09:46:00.398Z,7.50
2022-09-15T09:47:00.504Z,5.50
2022-09-15T09:48:01.819Z,5.60
2022-09-15T09:49:00.843Z,5.20
2022-09-15T09:50:00.991Z,5.50
2022-09-15T09:51:01.155Z,4.60
2022-09-15T09:52:01.333Z,4.50
2022-09-15T09:53:01.511Z,6.40
2022-09-15T09:54:01.743Z,4.60
2022-09-15T09:55:01.852Z,5.10
2022-09-15T09:56:02.035Z,4.80
2022-09-15T09:57:02.215Z,4.20
2022-09-15T09:58:02.394Z,4.30
2022-09-15T09:59:02.626Z,5.40
2022-09-15T10:00:02.765Z,4.90
2022-09-15T10:01:03.000Z,4.40
2022-09-15T10:02:03.250Z,4.60
2022-09-15T10:03:03.327Z,4.50
2022-09-15T10:04:03.517Z,4.50
2022-09-15T10:05:03.735Z,4.40
2022-09-15T10:06:03.839Z,4.70
2022-09-15T10:07:04.013Z,3.90
2022-09-15T10:08:04.172Z,5.50
2022-09-15T10:09:04.350Z,4.90
2022-09-15T10:10:04.492Z,5.60
2022-09-15T10:11:04.674Z,5.10
2022-09-15T10:12:04.851Z,3.80
2022-09-15T10:13:05.042Z,4.20
2022-09-15T10:14:05.200Z,5.50
2022-09-15T10:15:05.352Z,4.00
2022-09-15T10:16:05.535Z,4.60
2022-09-15T10:17:05.765Z,4.40
2022-09-15T10:18:05.889Z,5.00
2022-09-15T10:19:06.031Z,6.80
2022-09-15T10:20:06.203Z,4.40
2022-09-15T10:21:06.389Z,5.50
2022-09-15T10:22:06.577Z,4.20
2022-09-15T10:23:06.775Z,4.00
2022-09-15T10:24:06.919Z,5.30
2022-09-15T10:25:07.103Z,5.20
2022-09-15T10:26:07.284Z,5.30
2022-09-15T10:27:07.474Z,5.90
2022-09-15T10:28:07.674Z,5.60
2022-09-15T10:29:09.342Z,4.30
2022-09-15T10:30:07.996Z,5.10
2022-09-15T10:31:08.177Z,4.80
2022-09-15T10:32:08.399Z,4.70
2022-09-15T10:33:13.526Z,4.80
2022-09-15T10:34:08.727Z,4.80
2022-09-15T10:35:08.867Z,4.30
2022-09-15T10:36:09.048Z,4.60
2022-09-15T10:37:09.269Z,5.40
2022-09-15T10:38:09.432Z,4.70
2022-09-15T10:39:09.613Z,3.60
2022-09-15T10:40:09.786Z,4.20
2022-09-15T10:41:09.920Z,4.50
2022-09-15T10:42:10.097Z,4.00
2022-09-15T10:43:10.253Z,3.90
2022-09-15T10:44:10.415Z,3.80
2022-09-15T10:45:10.559Z,2.70
2022-09-15T10:46:10.806Z,5.10
2022-09-15T10:47:10.873Z,4.90
2022-09-15T10:48:11.073Z,4.20
2022-09-15T10:49:11.250Z,3.40
2022-09-15T10:50:11.453Z,3.40
2022-09-15T10:51:11.589Z,4.10
2022-09-15T10:52:11.734Z,3.00
2022-09-15T10:53:11.945Z,4.20
2022-09-15T10:54:12.088Z,4.40
2022-09-15T10:55:12.262Z,5.20
2022-09-15T10:56:12.452Z,2.40
2022-09-15T10:57:12.612Z,4.20
2022-09-15T10:58:12.762Z,4.20
2022-09-15T10:59:12.939Z,4.30
2022-09-15T11:00:13.078Z,5.00
2022-09-15T11:01:13.350Z,4.40
2022-09-15T11:02:13.496Z,2.80
2022-09-15T11:03:13.620Z,4.30
2022-09-15T11:04:13.771Z,2.80
2022-09-15T11:05:13.954Z,3.40
2022-09-15T11:06:14.106Z,4.00
2022-09-15T11:07:14.330Z,4.50
2022-09-15T11:08:14.494Z,3.90
2022-09-15T11:09:14.632Z,3.40
2022-09-15T11:10:14.942Z,6.30
2022-09-15T11:11:14.995Z,4.90
2022-09-15T11:12:15.209Z,4.70
2022-09-15T11:13:15.375Z,3.80
2022-09-15T11:14:15.544Z,6.60
2022-09-15T11:15:15.699Z,4.70
2022-09-15T11:16:15.988Z,3.80
2022-09-15T11:17:16.045Z,3.80
2022-09-15T11:18:16.308Z,4.60
2022-09-15T11:19:16.432Z,5.50
2022-09-15T11:20:16.685Z,4.30
2022-09-15T11:21:16.791Z,4.40
2022-09-15T11:22:16.908Z,6.10
2022-09-15T11:23:17.138Z,3.30
2022-09-15T11:24:17.319Z,5.20
2022-09-15T11:25:17.480Z,3.70
2022-09-15T11:26:17.689Z,4.20
2022-09-15T11:27:17.837Z,3.30
2022-09-15T11:28:18.001Z,4.80
2022-09-15T11:29:18.196Z,4.10
2022-09-15T11:30:18.343Z,4.90
2022-09-15T11:31:18.552Z,5.20
2022-09-15T11:32:18.664Z,3.60
2022-09-15T11:33:18.820Z,5.00
2022-09-15T11:34:19.004Z,5.60
2022-09-15T11:35:19.192Z,3.10
2022-09-15T11:36:19.374Z,4.00
2022-09-15T11:37:19.555Z,4.50
2022-09-15T11:38:19.696Z,3.60
2022-09-15T11:39:19.915Z,4.10
2022-09-15T11:40:20.198Z,4.00
2022-09-15T11:41:20.265Z,3.70
2022-09-15T11:42:20.431Z,4.20
2022-09-15T11:43:20.612Z,3.30
2022-09-15T11:44:20.763Z,3.60
2022-09-15T11:45:20.937Z,4.10
2022-09-15T11:46:21.141Z,4.90
2022-09-15T11:47:21.328Z,3.90
2022-09-15T11:48:21.463Z,3.90
2022-09-15T11:49:21.630Z,3.50
2022-09-15T11:50:21.816Z,4.70
2022-09-15T11:51:21.971Z,4.10
2022-09-15T11:52:22.143Z,4.40
2022-09-15T11:53:22.309Z,5.00
2022-09-15T11:54:22.512Z,3.80
2022-09-15T11:55:22.689Z,3.30
2022-09-15T11:56:22.840Z,4.40
2022-09-15T11:57:23.024Z,2.30
2022-09-15T11:58:23.183Z,5.00
2022-09-15T11:59:23.369Z,3.30
2022-09-15T12:00:23.545Z,5.30
2022-09-15T12:01:23.701Z,4.30
2022-09-15T12:02:23.925Z,4.90
2022-09-15T12:03:24.007Z,3.70
2022-09-15T12:04:24.200Z,4.50
2022-09-15T12:05:24.406Z,4.30
2022-09-15T12:06:24.556Z,4.30
2022-09-15T12:07:24.736Z,4.40
2022-09-15T12:08:24.925Z,4.50
2022-09-15T12:09:25.089Z,4.50
2022-09-15T12:10:25.276Z,4.90
2022-09-15T12:11:25.444Z,4.60
2022-09-15T12:12:29.348Z,4.60
2022-09-15T12:13:26.773Z,3.80
2022-09-15T12:14:25.959Z,3.80
2022-09-15T12:15:26.128Z,3.30
2022-09-15T12:16:26.356Z,4.40
2022-09-15T12:17:26.482Z,4.00
2022-09-15T12:18:38.462Z,4.10
2022-09-15T12:19:27.833Z,3.70
2022-09-15T12:20:26.992Z,4.40
2022-09-15T12:21:27.143Z,4.50
2022-09-15T12:22:27.344Z,5.80
2022-09-15T12:23:27.525Z,4.90
2022-09-15T12:24:27.732Z,3.80
2022-09-15T12:25:27.897Z,4.20
2022-09-15T12:26:28.062Z,4.40
2022-09-15T12:27:28.229Z,3.00
2022-09-15T12:28:28.537Z,4.20
2022-09-15T12:29:28.581Z,4.10
2022-09-15T12:30:28.766Z,4.60
2022-09-15T12:31:28.972Z,5.10
2022-09-15T12:32:29.143Z,3.50
2022-09-15T12:33:29.289Z,4.10
2022-09-15T12:34:29.480Z,3.90
2022-09-15T12:35:29.679Z,4.50
2022-09-15T12:36:29.830Z,4.70
2022-09-15T12:37:29.970Z,5.70
2022-09-15T12:38:30.187Z,3.60
2022-09-15T12:39:30.336Z,4.20
2022-09-15T12:40:30.520Z,4.90
2022-09-15T12:41:30.631Z,3.30
2022-09-15T12:42:30.822Z,3.50
2022-09-15T12:43:31.031Z,4.10
2022-09-15T12:44:31.174Z,5.50
2022-09-15T12:45:31.321Z,4.80
2022-09-15T12:46:31.564Z,4.50
2022-09-15T12:47:31.698Z,3.80
2022-09-15T12:48:31.890Z,5.80
2022-09-15T12:49:32.028Z,3.90
2022-09-15T12:50:32.231Z,3.20
2022-09-15T12:51:32.451Z,2.90
2022-09-15T12:52:32.611Z,3.90
2022-09-15T12:53:32.785Z,3.40
2022-09-15T12:54:32.982Z,4.30
2022-09-15T12:55:33.269Z,4.20
2022-09-15T12:56:33.359Z,4.00
2022-09-15T12:57:33.583Z,4.10
2022-09-15T12:58:33.681Z,5.50
2022-09-15T12:59:33.847Z,4.30
2022-09-15T13:00:33.992Z,4.40
2022-09-15T13:01:34.229Z,4.00
2022-09-15T13:02:34.537Z,5.80
2022-09-15T13:03:34.583Z,4.50
2022-09-15T13:04:34.699Z,6.10
2022-09-15T13:05:34.870Z,5.20
2022-09-15T13:06:35.060Z,5.00
2022-09-15T13:07:35.252Z,4.90
2022-09-15T13:08:35.432Z,5.00
2022-09-15T13:09:35.614Z,5.80
2022-09-15T13:10:35.801Z,5.10
2022-09-15T13:11:36.037Z,5.00
2022-09-15T13:12:36.123Z,3.80
2022-09-15T13:13:36.336Z,4.70
2022-09-15T13:14:36.504Z,5.00
2022-09-15T13:15:36.661Z,5.40
2022-09-15T13:16:36.836Z,4.10
2022-09-15T13:17:36.983Z,4.20
2022-09-15T13:18:37.170Z,3.50
2022-09-15T13:19:37.360Z,3.60
2022-09-15T13:20:37.548Z,5.00
2022-09-15T13:21:37.692Z,3.60